Haines Airport
PAHN : rendu visible

Aérodrome :











RETROUVEZ-NOUS SUR...

 
LOGIN :

S'inscrire | Disclaimer

   EN    FR    IT 

 









Légende :    VFR   VFR Marginal   IFR   IFR Intensif   IFR Très Intensif
Visi : 
Plafond : 
>= 8 km
>= 3000ft
5 à 8 km
1000 à 3000 ft
1500m à 5 km
500 à 1000 ft
800 à 1500m
200 à 500 ft
< 800m
< 200 ft
Symboles :   Orages  Brouillard  Fortes neiges  Fortes précipitations  Vent > 20 kt






- Altitude de l'aérodrome : 15 ft
- Code IATA : HNS


PAHN - Haines

DERNIER METAR :
  • 261654Z AUTO 00000KT 1 1/4SM -SN BR OVC021 M05/M07 A2967 RMK SLP051 P0001 T10501067 TSNO VIA AUTODIAL

METARs EXPIRÉS :
  • 261554Z AUTO 30007KT 1SM -SN BR VV009 M06/M07 A2969 RMK SLP055 P0005 T10561072 TSNO VIA AUTODIAL
  • 261458Z AUTO 29008KT 3/4SM -SN BR VV013 M06/M08 A2968 RMK P0000 T10561078 TSNO VIA AUTODIAL

TAF PAHN
Valide du 26 à 12h jusqu'au 27 à 12h UTC


261127Z 2612/2712 30008KT 1SM -SN BKN010 OVC025 WS020/16035KT
FM262000 08012KT 4SM -RASN BR OVC015 WS020/18035KT
FM270000 09014G22KT 5SM -RA BR OVC015 WS020/17035KT
FM270900 10010G18KT 6SM -RA BR OVC015 WS020/18030KT AMD LTD TO CLD VIS AND WIND



MET'MAP, la Météo Aéronautique d'un coup d'oeil ! - Copyright ORBIFLY Décembre 2007 - Disclaimer

ORBIFLY MET'MAP TEAM :

Programmation & Développement : Alexandra Zaïnal
Sur une idée originale de : Baudouin d'Aumeries
Assistance à la programmation : Marc-Olivier Méhu
Soutien technique & logistique : Manuel Goepfert

Contact : metmap@orbifly.com




SOURCES & CREDITS :

   NOAA       Earth
Advisory